createdAt,value
2019-05-02T00:02:07.038Z,6.00
2019-05-02T00:04:36.513Z,6.06
2019-05-02T00:07:06.694Z,6.01
2019-05-02T00:09:37.307Z,6.09
2019-05-02T00:12:08.616Z,6.13
2019-05-02T00:14:38.766Z,6.15
2019-05-02T00:17:08.336Z,6.14
2019-05-02T00:19:37.824Z,6.15
2019-05-02T00:22:12.180Z,6.15
2019-05-02T00:24:41.051Z,6.15
2019-05-02T00:27:10.759Z,6.08
2019-05-02T00:29:40.141Z,5.99
2019-05-02T00:32:09.748Z,5.99
2019-05-02T00:34:39.074Z,5.92
2019-05-02T00:37:08.519Z,5.84
2019-05-02T00:39:37.905Z,5.83
2019-05-02T00:42:12.847Z,5.77
2019-05-02T00:44:42.108Z,5.74
2019-05-02T00:47:13.723Z,5.75
2019-05-02T00:49:43.072Z,5.72
2019-05-02T00:52:12.574Z,5.68
2019-05-02T00:54:41.901Z,5.71
2019-05-02T00:57:14.999Z,5.66
2019-05-02T00:59:43.511Z,5.64
2019-05-02T01:02:17.434Z,5.63
2019-05-02T01:04:49.671Z,5.63
2019-05-02T01:07:20.511Z,5.65
2019-05-02T01:09:50.404Z,5.65
2019-05-02T01:12:26.692Z,5.69
2019-05-02T01:14:50.787Z,5.69
2019-05-02T01:17:20.159Z,5.70
2019-05-02T01:19:51.547Z,5.77
2019-05-02T01:22:20.619Z,5.80
2019-05-02T01:24:49.943Z,5.83
2019-05-02T01:27:41.130Z,5.84
2019-05-02T01:30:19.307Z,5.82
2019-05-02T01:32:50.278Z,5.91
2019-05-02T01:35:27.049Z,5.92
2019-05-02T01:38:14.789Z,5.87
2019-05-02T01:40:48.044Z,5.82
2019-05-02T01:43:30.446Z,5.77
2019-05-02T01:45:59.924Z,5.77
2019-05-02T01:48:29.700Z,5.75
2019-05-02T01:50:59.000Z,5.74
2019-05-02T01:53:34.040Z,5.66
2019-05-02T01:55:59.517Z,5.63
2019-05-02T01:58:28.944Z,5.61
2019-05-02T02:00:58.311Z,5.54
2019-05-02T02:03:27.585Z,5.51
2019-05-02T02:05:58.004Z,5.56
2019-05-02T02:08:32.315Z,5.48
2019-05-02T02:10:58.436Z,5.48
2019-05-02T02:13:31.272Z,5.43
2019-05-02T02:16:04.448Z,5.36
2019-05-02T02:18:33.521Z,5.29
2019-05-02T02:21:07.995Z,5.28
2019-05-02T02:23:39.113Z,5.28
2019-05-02T02:26:12.048Z,5.28
2019-05-02T02:28:41.073Z,5.28
2019-05-02T02:31:10.387Z,5.23
2019-05-02T02:33:41.127Z,5.20
2019-05-02T02:36:10.736Z,5.29
2019-05-02T02:38:40.010Z,5.23
2019-05-02T02:41:13.224Z,5.22
2019-05-02T02:43:40.545Z,5.21
2019-05-02T02:46:17.165Z,5.23
2019-05-02T02:48:46.441Z,5.21
2019-05-02T02:51:23.333Z,5.16
2019-05-02T02:53:46.720Z,5.15
2019-05-02T02:56:16.099Z,5.18
2019-05-02T02:58:47.664Z,5.15
2019-05-02T03:01:27.570Z,5.06
2019-05-02T03:03:47.588Z,5.02
2019-05-02T03:06:16.933Z,4.95
2019-05-02T03:08:49.231Z,4.98
2019-05-02T03:11:23.513Z,5.04
2019-05-02T03:14:09.058Z,5.04
2019-05-02T03:16:46.195Z,5.05
2019-05-02T03:19:08.594Z,5.03
2019-05-02T03:21:39.408Z,5.05
2019-05-02T03:24:08.739Z,5.05
2019-05-02T03:26:38.037Z,4.97
2019-05-02T03:29:07.372Z,4.94
2019-05-02T03:31:37.111Z,4.88
2019-05-02T03:34:06.435Z,4.84
2019-05-02T03:36:37.199Z,4.79
2019-05-02T03:39:14.845Z,4.80
2019-05-02T03:41:38.338Z,4.84
2019-05-02T03:44:12.420Z,4.87
2019-05-02T03:46:39.257Z,4.88
2019-05-02T03:49:09.691Z,4.83
2019-05-02T03:51:39.505Z,4.80
2019-05-02T03:54:10.448Z,4.78
2019-05-02T03:56:44.839Z,4.80
2019-05-02T03:59:11.516Z,4.81
2019-05-02T04:01:41.846Z,4.80
2019-05-02T04:04:14.064Z,4.80
2019-05-02T04:06:43.347Z,4.79
2019-05-02T04:09:32.075Z,4.79
2019-05-02T04:11:58.610Z,4.80
2019-05-02T04:14:37.572Z,4.78
2019-05-02T04:16:59.804Z,4.82
2019-05-02T04:19:34.829Z,4.84
2019-05-02T04:22:01.890Z,4.88
2019-05-02T04:24:33.544Z,4.88
2019-05-02T04:27:02.860Z,4.92
2019-05-02T04:29:33.158Z,4.97
2019-05-02T04:32:04.486Z,5.04
2019-05-02T04:34:33.719Z,4.98
2019-05-02T04:37:04.051Z,5.03
2019-05-02T04:39:33.689Z,5.06
2019-05-02T04:42:13.014Z,5.12
2019-05-02T04:44:40.768Z,5.14
2019-05-02T04:47:11.099Z,5.18
2019-05-02T04:49:39.018Z,5.22
2019-05-02T04:52:11.642Z,5.21
2019-05-02T04:54:39.052Z,5.29
2019-05-02T04:57:08.818Z,5.36
2019-05-02T04:59:39.545Z,5.41
2019-05-02T05:02:09.501Z,5.50
2019-05-02T05:04:46.079Z,5.54
2019-05-02T05:07:09.845Z,5.58
2019-05-02T05:09:40.200Z,5.70
2019-05-02T05:12:12.541Z,5.78
2019-05-02T05:14:43.186Z,5.96
2019-05-02T05:17:13.987Z,6.07
2019-05-02T05:19:43.299Z,6.14
2019-05-02T05:22:12.615Z,6.25
2019-05-02T05:24:43.566Z,6.42
2019-05-02T05:27:18.160Z,6.61
2019-05-02T05:29:45.997Z,6.80
2019-05-02T05:32:15.410Z,7.04
2019-05-02T05:34:44.886Z,7.14
2019-05-02T05:37:17.131Z,7.31
2019-05-02T05:39:50.923Z,7.51
2019-05-02T05:42:17.846Z,7.92
2019-05-02T05:44:48.362Z,8.27
2019-05-02T05:47:21.291Z,8.77
2019-05-02T05:49:52.405Z,9.11
2019-05-02T05:52:20.187Z,9.63
2019-05-02T05:54:49.532Z,9.83
2019-05-02T05:57:21.122Z,9.73
2019-05-02T05:59:49.946Z,9.24
2019-05-02T06:02:19.303Z,9.18
2019-05-02T06:04:50.269Z,9.12
2019-05-02T06:07:20.058Z,9.52
2019-05-02T06:09:49.724Z,9.70
2019-05-02T06:12:19.091Z,9.86
2019-05-02T06:14:49.950Z,10.13
2019-05-02T06:17:23.122Z,10.02
2019-05-02T06:19:53.558Z,9.75
2019-05-02T06:22:24.682Z,9.91
2019-05-02T06:24:55.782Z,9.88
2019-05-02T06:27:26.114Z,9.68
2019-05-02T06:29:57.323Z,9.52
2019-05-02T06:32:26.869Z,9.90
2019-05-02T06:34:56.377Z,10.15
2019-05-02T06:37:26.340Z,10.73
2019-05-02T06:39:56.093Z,10.74
2019-05-02T06:42:27.707Z,10.46
2019-05-02T06:44:59.700Z,10.25
2019-05-02T06:47:27.526Z,10.13
2019-05-02T06:50:01.068Z,10.07
2019-05-02T06:52:32.870Z,10.34
2019-05-02T06:55:00.296Z,10.30
2019-05-02T06:57:29.706Z,10.50
2019-05-02T06:59:59.103Z,10.53
2019-05-02T07:02:33.562Z,10.56
2019-05-02T07:04:59.665Z,10.91
2019-05-02T07:07:31.064Z,11.08
2019-05-02T07:10:00.122Z,11.04
2019-05-02T07:12:29.596Z,11.14
2019-05-02T07:15:01.558Z,11.30
2019-05-02T07:17:36.453Z,11.63
2019-05-02T07:20:06.761Z,11.72
2019-05-02T07:22:38.781Z,11.85
2019-05-02T07:25:08.995Z,11.88
2019-05-02T07:27:39.357Z,11.94
2019-05-02T07:30:09.251Z,11.66
2019-05-02T07:32:38.662Z,11.82
2019-05-02T07:35:08.332Z,12.00
2019-05-02T07:37:37.694Z,12.19
2019-05-02T07:40:12.119Z,12.34
2019-05-02T07:42:41.892Z,12.19
2019-05-02T07:45:10.832Z,12.28
2019-05-02T07:47:42.369Z,12.25
2019-05-02T07:50:12.051Z,12.23
2019-05-02T07:52:41.595Z,12.25
2019-05-02T07:55:11.297Z,12.49
2019-05-02T07:57:41.476Z,12.77
2019-05-02T08:00:14.259Z,13.32
2019-05-02T08:02:43.212Z,13.39
2019-05-02T08:05:15.757Z,13.90
2019-05-02T08:07:43.930Z,14.29
2019-05-02T08:10:16.413Z,13.69
2019-05-02T08:12:44.992Z,13.79
2019-05-02T08:15:15.302Z,13.48
2019-05-02T08:17:53.338Z,13.65
2019-05-02T08:20:19.266Z,13.29
2019-05-02T08:22:50.422Z,13.66
2019-05-02T08:25:20.262Z,13.87
2019-05-02T08:27:51.251Z,14.15
2019-05-02T08:30:24.764Z,14.31
2019-05-02T08:32:55.353Z,13.88
2019-05-02T08:35:27.671Z,13.73
2019-05-02T08:37:56.249Z,13.75
2019-05-02T08:40:25.735Z,13.57
2019-05-02T08:42:55.027Z,13.58
2019-05-02T08:45:24.335Z,13.30
2019-05-02T08:47:53.832Z,13.36
2019-05-02T08:50:27.076Z,13.46
2019-05-02T08:52:54.385Z,13.90
2019-05-02T08:55:23.685Z,13.71
2019-05-02T08:57:52.963Z,14.22
2019-05-02T09:00:22.396Z,14.27
2019-05-02T09:02:51.696Z,14.62
2019-05-02T09:05:21.174Z,14.69
2019-05-02T09:07:50.709Z,14.68
2019-05-02T09:10:20.171Z,14.03
2019-05-02T09:12:49.625Z,13.49
2019-05-02T09:15:19.000Z,13.81
2019-05-02T09:17:52.890Z,13.88
2019-05-02T09:20:23.560Z,13.64
2019-05-02T09:22:55.949Z,13.07
2019-05-02T09:25:23.642Z,12.88
2019-05-02T09:27:53.148Z,12.97
2019-05-02T09:30:25.737Z,12.87
2019-05-02T09:32:57.098Z,12.61
2019-05-02T09:35:24.752Z,12.38
2019-05-02T09:37:54.057Z,12.35
2019-05-02T09:40:23.368Z,12.62
2019-05-02T09:42:57.648Z,12.48
2019-05-02T09:45:27.725Z,12.22
2019-05-02T09:48:04.518Z,12.14
2019-05-02T09:50:31.376Z,11.88
2019-05-02T09:53:01.730Z,11.94
2019-05-02T09:55:31.788Z,11.79
2019-05-02T09:58:02.702Z,11.51
2019-05-02T10:00:41.940Z,11.49
2019-05-02T10:03:12.072Z,11.52
2019-05-02T10:05:43.057Z,11.43
2019-05-02T10:08:13.938Z,11.41
2019-05-02T10:10:45.841Z,11.38
2019-05-02T10:13:14.876Z,11.28
2019-05-02T10:15:44.415Z,11.29
2019-05-02T10:18:14.898Z,11.25
2019-05-02T10:20:45.615Z,11.27
2019-05-02T10:23:19.499Z,11.22
2019-05-02T10:25:47.006Z,11.26
2019-05-02T10:28:16.458Z,11.25
2019-05-02T10:30:47.260Z,11.38
2019-05-02T10:33:16.764Z,11.39
2019-05-02T10:35:47.738Z,11.47
2019-05-02T10:38:19.722Z,11.53
2019-05-02T10:40:54.563Z,11.59
2019-05-02T10:43:22.114Z,11.56
2019-05-02T10:45:56.470Z,11.55
2019-05-02T10:48:28.170Z,11.50
2019-05-02T10:50:56.804Z,11.44
2019-05-02T10:53:26.295Z,11.38
2019-05-02T10:55:55.617Z,11.42
2019-05-02T10:58:32.009Z,11.45
2019-05-02T11:00:57.647Z,11.39
2019-05-02T11:03:32.009Z,11.44
2019-05-02T11:06:07.446Z,11.39
2019-05-02T11:08:36.607Z,11.27
2019-05-02T11:11:06.231Z,11.29
2019-05-02T11:13:38.172Z,11.27
2019-05-02T11:16:12.401Z,11.30
2019-05-02T11:18:59.631Z,11.51
2019-05-02T11:21:29.168Z,11.76
2019-05-02T11:23:58.538Z,11.86
2019-05-02T11:26:29.648Z,12.33
2019-05-02T11:28:58.959Z,12.64
2019-05-02T11:31:28.393Z,12.65
2019-05-02T11:33:57.677Z,13.36
2019-05-02T11:36:27.505Z,13.32
2019-05-02T11:39:09.064Z,13.23
2019-05-02T11:41:29.101Z,12.94
2019-05-02T11:43:59.903Z,13.23
2019-05-02T11:46:29.324Z,13.40
2019-05-02T11:48:58.807Z,13.19
2019-05-02T11:51:28.110Z,12.83
2019-05-02T11:53:59.229Z,12.68
2019-05-02T11:56:28.741Z,12.55
2019-05-02T11:58:59.309Z,12.36
2019-05-02T12:01:37.134Z,11.92
2019-05-02T12:03:59.861Z,11.80
2019-05-02T12:06:29.244Z,12.07
2019-05-02T12:08:58.576Z,12.55
2019-05-02T12:11:27.895Z,13.17
2019-05-02T12:13:57.228Z,13.33
2019-05-02T12:16:27.942Z,13.68
2019-05-02T12:19:08.471Z,13.35
2019-05-02T12:21:28.791Z,13.19
2019-05-02T12:23:58.096Z,13.07
2019-05-02T12:26:27.685Z,12.80
2019-05-02T12:28:58.613Z,12.55
2019-05-02T12:31:32.480Z,12.32
2019-05-02T12:34:02.896Z,11.99
2019-05-02T12:36:33.547Z,11.98
2019-05-02T12:39:04.299Z,12.13
2019-05-02T12:41:33.810Z,12.14
2019-05-02T12:44:03.108Z,11.96
2019-05-02T12:46:32.520Z,12.01
2019-05-02T12:49:02.860Z,12.07
2019-05-02T12:51:32.628Z,11.83
2019-05-02T12:54:02.447Z,11.86
2019-05-02T12:56:32.510Z,11.74
2019-05-02T12:59:02.509Z,11.69
2019-05-02T13:01:33.027Z,11.82
2019-05-02T13:04:07.379Z,11.84
2019-05-02T13:06:37.313Z,12.12
2019-05-02T13:09:09.837Z,12.32
2019-05-02T13:11:47.937Z,12.65
2019-05-02T13:14:19.852Z,12.70
2019-05-02T13:16:53.446Z,12.33
2019-05-02T13:19:23.683Z,12.53
2019-05-02T13:22:12.485Z,12.57
2019-05-02T13:24:46.946Z,12.45
2019-05-02T13:27:17.232Z,12.11
2019-05-02T13:29:47.415Z,11.87
2019-05-02T13:32:32.157Z,11.81
2019-05-02T13:35:09.191Z,11.80
2019-05-02T13:37:38.714Z,12.01
2019-05-02T13:40:12.414Z,12.24
2019-05-02T13:42:41.948Z,12.03
2019-05-02T13:45:13.266Z,12.04
2019-05-02T13:47:42.698Z,12.20
2019-05-02T13:50:12.977Z,12.17
2019-05-02T13:52:45.243Z,12.04
2019-05-02T13:55:15.358Z,12.16
2019-05-02T13:57:46.875Z,12.43
2019-05-02T14:00:18.182Z,12.55
2019-05-02T14:02:47.510Z,12.72
2019-05-02T14:05:16.980Z,12.86
2019-05-02T14:07:55.576Z,12.84
2019-05-02T14:10:23.126Z,12.88
2019-05-02T14:13:00.603Z,13.07
2019-05-02T14:15:32.406Z,12.95
2019-05-02T14:18:02.928Z,12.74
2019-05-02T14:20:33.056Z,12.57
2019-05-02T14:23:02.626Z,12.58
2019-05-02T14:25:32.268Z,12.69
2019-05-02T14:28:02.915Z,12.83
2019-05-02T14:30:40.044Z,13.12
2019-05-02T14:33:08.145Z,13.39
2019-05-02T14:35:37.900Z,13.71
2019-05-02T14:38:08.149Z,13.84
2019-05-02T14:40:55.776Z,14.00
2019-05-02T14:43:44.485Z,14.15
2019-05-02T14:46:13.557Z,13.55
2019-05-02T14:48:45.223Z,13.28
2019-05-02T14:51:16.773Z,13.47
2019-05-02T14:53:46.000Z,13.54
2019-05-02T14:56:16.936Z,13.46
2019-05-02T14:58:47.742Z,13.19
2019-05-02T15:01:21.523Z,13.05
2019-05-02T15:03:48.138Z,13.04
2019-05-02T15:06:17.596Z,13.24
2019-05-02T15:08:46.966Z,13.39
2019-05-02T15:11:16.238Z,13.58
2019-05-02T15:13:45.552Z,13.99
2019-05-02T15:16:17.690Z,13.93
2019-05-02T15:18:47.557Z,14.10
2019-05-02T15:21:22.858Z,14.27
2019-05-02T15:23:54.336Z,14.27
2019-05-02T15:26:26.404Z,14.34
2019-05-02T15:28:54.362Z,14.70
2019-05-02T15:31:28.435Z,15.02
2019-05-02T15:34:01.559Z,14.43
2019-05-02T15:36:28.497Z,13.94
2019-05-02T15:41:29.474Z,13.77
2019-05-02T15:43:58.765Z,13.77
2019-05-02T15:46:28.382Z,14.09
2019-05-02T15:49:01.737Z,14.12
2019-05-02T15:51:28.986Z,13.97
2019-05-02T15:54:08.111Z,13.74
2019-05-02T15:56:35.738Z,13.83
2019-05-02T15:59:06.435Z,14.04
2019-05-02T16:01:41.598Z,14.23
2019-05-02T16:04:09.663Z,14.49
2019-05-02T16:06:38.984Z,14.34
2019-05-02T16:09:08.866Z,14.88
2019-05-02T16:11:39.735Z,15.27
2019-05-02T16:14:09.047Z,15.21
2019-05-02T16:16:41.868Z,14.97
2019-05-02T16:19:14.659Z,14.55
2019-05-02T16:21:42.742Z,14.02
2019-05-02T16:24:19.446Z,13.73
2019-05-02T16:26:56.612Z,13.84
2019-05-02T16:29:28.454Z,14.28
2019-05-02T16:32:03.160Z,15.01
2019-05-02T16:34:35.436Z,15.19
2019-05-02T16:37:16.513Z,14.88
2019-05-02T16:39:49.711Z,14.84
2019-05-02T16:42:14.791Z,15.22
2019-05-02T16:44:44.629Z,14.84
2019-05-02T16:47:14.166Z,15.10
2019-05-02T16:49:47.872Z,14.29
2019-05-02T16:52:16.197Z,14.02
2019-05-02T16:54:45.870Z,13.63
2019-05-02T16:57:17.385Z,13.48
2019-05-02T16:59:47.428Z,13.41
2019-05-02T17:02:16.908Z,13.35
2019-05-02T17:04:46.222Z,13.19
2019-05-02T17:07:17.195Z,13.14
2019-05-02T17:10:08.502Z,13.25
2019-05-02T17:12:37.253Z,13.02
2019-05-02T17:15:31.106Z,13.20
2019-05-02T17:18:05.024Z,13.72
2019-05-02T17:20:31.972Z,13.24
2019-05-02T17:23:03.362Z,12.82
2019-05-02T17:25:32.462Z,12.43
2019-05-02T17:28:06.970Z,12.32
2019-05-02T17:30:39.009Z,12.10
2019-05-02T17:33:07.101Z,12.20
2019-05-02T17:35:35.934Z,12.11
2019-05-02T17:38:05.482Z,12.05
2019-05-02T17:40:34.802Z,12.06
2019-05-02T17:43:06.914Z,11.93
2019-05-02T17:45:38.491Z,11.87
2019-05-02T17:48:15.267Z,11.74
2019-05-02T17:50:59.181Z,11.61
2019-05-02T17:53:26.845Z,11.51
2019-05-02T17:55:56.224Z,11.18
2019-05-02T17:58:25.505Z,11.05
2019-05-02T18:00:57.244Z,10.92
2019-05-02T18:03:30.873Z,10.78
2019-05-02T18:05:58.524Z,10.85
2019-05-02T18:08:27.917Z,10.93
2019-05-02T18:11:00.117Z,10.82
2019-05-02T18:13:29.183Z,10.77
2019-05-02T18:15:59.421Z,10.64
2019-05-02T18:18:28.785Z,10.55
2019-05-02T18:20:58.234Z,10.41
2019-05-02T18:23:27.775Z,10.41
2019-05-02T18:26:04.547Z,10.34
2019-05-02T18:28:29.834Z,10.23
2019-05-02T18:31:04.527Z,10.15
2019-05-02T18:33:30.203Z,10.18
2019-05-02T18:35:59.466Z,10.22
2019-05-02T18:38:28.841Z,10.21
2019-05-02T18:41:00.358Z,10.23
2019-05-02T18:43:31.487Z,10.17
2019-05-02T18:46:05.934Z,10.17
2019-05-02T18:48:31.962Z,10.15
2019-05-02T18:51:01.641Z,10.12
2019-05-02T18:53:32.670Z,10.08
2019-05-02T18:56:03.629Z,10.09
2019-05-02T18:58:36.347Z,10.04
2019-05-02T19:01:08.499Z,10.03
2019-05-02T19:03:36.494Z,10.05
2019-05-02T19:06:05.804Z,10.05
2019-05-02T19:08:45.290Z,9.97
2019-05-02T19:11:11.985Z,9.98
2019-05-02T19:13:42.754Z,9.91
2019-05-02T19:16:10.008Z,9.93
2019-05-02T19:18:39.340Z,9.90
2019-05-02T19:21:09.010Z,9.87
2019-05-02T19:23:38.324Z,9.94
2019-05-02T19:26:15.055Z,9.98
2019-05-02T19:28:42.774Z,10.03
2019-05-02T19:31:11.242Z,10.03
2019-05-02T19:33:42.538Z,10.03
2019-05-02T19:36:11.363Z,9.98
2019-05-02T19:38:42.804Z,10.02
2019-05-02T19:41:12.452Z,9.98
2019-05-02T19:43:49.452Z,10.06
2019-05-02T19:46:12.919Z,10.19
2019-05-02T19:48:43.014Z,10.15
2019-05-02T19:51:18.644Z,10.13
2019-05-02T19:53:44.592Z,10.12
2019-05-02T19:56:13.903Z,10.09
2019-05-02T19:58:46.614Z,10.05
2019-05-02T20:01:17.508Z,10.07
2019-05-02T20:03:45.528Z,10.04
2019-05-02T20:06:14.983Z,10.02
2019-05-02T20:08:44.394Z,9.97
2019-05-02T20:11:13.713Z,9.97
2019-05-02T20:13:43.096Z,9.97
2019-05-02T20:16:31.906Z,9.90
2019-05-02T20:19:01.986Z,9.81
2019-05-02T20:21:38.749Z,9.71
2019-05-02T20:24:09.284Z,9.60
2019-05-02T20:26:39.002Z,9.42
2019-05-02T20:29:08.464Z,9.43
2019-05-02T20:31:37.850Z,9.40
2019-05-02T20:34:07.196Z,9.38
2019-05-02T20:36:36.497Z,9.32
2019-05-02T20:39:07.388Z,9.36
2019-05-02T20:41:37.349Z,9.35
2019-05-02T20:44:06.713Z,9.35
2019-05-02T20:46:36.081Z,9.35
2019-05-02T20:49:05.655Z,9.37
2019-05-02T20:51:36.557Z,9.31
2019-05-02T20:54:06.000Z,9.32
2019-05-02T20:56:35.538Z,9.26
2019-05-02T20:59:05.786Z,9.29
2019-05-02T21:01:35.123Z,9.25
2019-05-02T21:04:04.428Z,9.26
2019-05-02T21:06:40.776Z,9.21
2019-05-02T21:09:08.518Z,9.23
2019-05-02T21:11:41.834Z,9.23
2019-05-02T21:14:12.708Z,9.24
2019-05-02T21:16:42.034Z,9.22
2019-05-02T21:19:12.367Z,9.16
2019-05-02T21:21:42.638Z,9.18
2019-05-02T21:24:12.108Z,9.14
2019-05-02T21:26:42.126Z,9.09
2019-05-02T21:29:12.129Z,9.08
2019-05-02T21:31:42.555Z,9.06
2019-05-02T21:34:13.022Z,9.05
2019-05-02T21:36:42.612Z,9.07
2019-05-02T21:39:12.469Z,9.05
2019-05-02T21:41:42.418Z,8.97
2019-05-02T21:44:13.328Z,8.97
2019-05-02T21:46:42.666Z,8.88
2019-05-02T21:49:14.101Z,8.82
2019-05-02T21:51:51.803Z,8.79
2019-05-02T21:54:26.908Z,8.79
2019-05-02T21:57:02.605Z,8.77
2019-05-02T21:59:32.110Z,8.72
2019-05-02T22:02:02.486Z,8.68
2019-05-02T22:04:31.942Z,8.71
2019-05-02T22:07:01.632Z,8.72
2019-05-02T22:09:32.380Z,8.66
2019-05-02T22:12:01.941Z,8.71
2019-05-02T22:14:32.834Z,8.70
2019-05-02T22:17:02.848Z,8.73
2019-05-02T22:19:32.432Z,8.69
2019-05-02T22:22:01.830Z,8.64
2019-05-02T22:24:31.306Z,8.72
2019-05-02T22:27:01.957Z,8.67
2019-05-02T22:29:32.381Z,8.75
2019-05-02T22:32:03.008Z,8.77
2019-05-02T22:34:33.653Z,8.75
2019-05-02T22:37:04.518Z,8.74
2019-05-02T22:39:38.227Z,8.75
2019-05-02T22:42:07.543Z,8.73
2019-05-02T22:44:36.906Z,8.65
2019-05-02T22:47:06.204Z,8.73
2019-05-02T22:49:35.534Z,8.57
2019-05-02T22:52:04.863Z,8.52
2019-05-02T22:54:34.179Z,8.44
2019-05-02T22:57:03.466Z,8.30
2019-05-02T22:59:33.654Z,8.24
2019-05-02T23:02:02.955Z,8.21
2019-05-02T23:04:33.514Z,8.21
2019-05-02T23:07:02.828Z,8.24
2019-05-02T23:09:32.157Z,8.24
2019-05-02T23:12:02.855Z,8.18
2019-05-02T23:14:32.687Z,8.16
2019-05-02T23:17:02.339Z,8.17
2019-05-02T23:19:31.898Z,8.25
2019-05-02T23:22:02.059Z,8.28
2019-05-02T23:24:38.669Z,8.29
2019-05-02T23:27:22.424Z,8.30
2019-05-02T23:29:52.065Z,8.28
2019-05-02T23:32:23.627Z,8.27
2019-05-02T23:34:52.914Z,8.28
2019-05-02T23:37:22.307Z,8.27
2019-05-02T23:39:52.243Z,8.26
2019-05-02T23:42:21.989Z,8.25
2019-05-02T23:44:51.916Z,8.23
2019-05-02T23:47:22.505Z,8.27
2019-05-02T23:49:52.204Z,8.28
2019-05-02T23:52:22.446Z,8.27
2019-05-02T23:54:53.046Z,8.25
2019-05-02T23:57:22.948Z,8.22
2019-05-02T23:59:52.418Z,8.23
